PWSweather.com
Personal Weather Stations
Station Observations
WISCHPK61
Green Bay Schmitt Park, Green Bay, WI 54311

Green Bay Schmitt ParkGreen Bay, WI 54311

Lat: 44.514277, Lon: -87.935067

Elevation: 735

Station Type: Acu Rite Pro Weather Center model 02032C

http://greenbayweathercam.com

High Low Average
Temperature 2.6°F-16.3°C -13.0°F-25.0°C -3.4°F-19.7°C
Dew Point 2.4°F-16.4°C -16.3°F-26.8°C -4.6°F-20.3°C
Winds Calm Calm Calm Calm Calm WSWCalm WSW
Wind Gusts -- -- --
Humidity 99% 74% 95%
Pressure 29.14 in986.8 mb 28.98 in981.4 mb -
Precipitation 0.00 in0.0 mm - -
Hour Temp Dew Point Humidity Winds Wind Gusts Pressure Precip Precip Rate Daily Precip Total
12:00 AM -6.5°F-21.4°C -11.1°F-23.9°C 80% Calm Calm -- 29.09 in985.1 mb - 0.00 in0.0 mm 0.00 in0.0 mm
01:00 AM -5.1°F-20.6°C -5.3°F-20.7°C 99% Calm Calm -- 29.09 in985.1 mb - 0.00 in0.0 mm 0.00 in0.0 mm
02:00 AM -4.9°F-20.5°C -10.0°F-23.3°C 78% Calm Calm -- 29.07 in984.4 mb - 0.00 in0.0 mm 0.00 in0.0 mm
03:00 AM -4.9°F-20.5°C -5.1°F-20.6°C 99% Calm Calm -- 29.06 in984.1 mb - 0.00 in0.0 mm 0.00 in0.0 mm
04:00 AM -4.9°F-20.5°C -5.1°F-20.6°C 99% Calm Calm -- 29.03 in983.1 mb - 0.00 in0.0 mm 0.00 in0.0 mm
05:00 AM -3.5°F-19.7°C -6.6°F-21.4°C 86% Calm Calm -- 29.02 in982.7 mb - 0.00 in0.0 mm 0.00 in0.0 mm
06:00 AM -2.0°F-18.9°C -2.2°F-19.0°C 99% Calm Calm -- 29.00 in982.1 mb - 0.00 in0.0 mm 0.00 in0.0 mm
07:00 AM -1.7°F-18.7°C -1.9°F-18.8°C 99% Calm Calm -- 29.00 in982.1 mb - 0.00 in0.0 mm 0.00 in0.0 mm
08:00 AM 0.9°F-17.3°C 0.7°F-17.4°C 99% Calm Calm -- 29.00 in982.1 mb - 0.00 in0.0 mm 0.00 in0.0 mm
09:00 AM 0.5°F-17.5°C 0.3°F-17.6°C 99% Calm Calm -- 29.00 in982.1 mb - 0.00 in0.0 mm 0.00 in0.0 mm
10:00 AM -0.4°F-18.0°C -0.7°F-18.2°C 99% Calm Calm -- 29.00 in982.1 mb - 0.00 in0.0 mm 0.00 in0.0 mm
11:00 AM -0.1°F-17.8°C -0.3°F-17.9°C 99% Calm Calm -- 29.00 in982.1 mb - 0.00 in0.0 mm 0.00 in0.0 mm
12:00 PM 2.6°F-16.3°C 2.4°F-16.4°C 99% Calm Calm -- 28.98 in981.4 mb - 0.00 in0.0 mm 0.00 in0.0 mm
01:00 PM 1.0°F-17.2°C -5.3°F-20.7°C 74% Calm Calm -- 28.98 in981.4 mb - 0.00 in0.0 mm 0.00 in0.0 mm
02:00 PM 1.0°F-17.2°C 0.8°F-17.3°C 99% Calm Calm -- 28.99 in981.7 mb - 0.00 in0.0 mm 0.00 in0.0 mm
03:00 PM 0.4°F-17.6°C 0.2°F-17.7°C 99% Calm Calm -- 29.01 in982.4 mb - 0.00 in0.0 mm 0.00 in0.0 mm
04:00 PM -0.6°F-18.1°C -0.8°F-18.2°C 99% Calm Calm -- 29.03 in983.1 mb - 0.00 in0.0 mm 0.00 in0.0 mm
05:00 PM -2.0°F-18.9°C -2.2°F-19.0°C 99% Calm Calm -- 29.06 in984.1 mb - 0.00 in0.0 mm 0.00 in0.0 mm
06:00 PM -3.8°F-19.9°C -4.0°F-20.0°C 99% Calm Calm -- 29.09 in985.1 mb - 0.00 in0.0 mm 0.00 in0.0 mm
07:00 PM -5.8°F-21.0°C -6.0°F-21.1°C 99% Calm Calm -- 29.11 in985.8 mb - 0.00 in0.0 mm 0.00 in0.0 mm
08:00 PM -7.8°F-22.1°C -8.0°F-22.2°C 99% Calm Calm -- 29.13 in986.5 mb - 0.00 in0.0 mm 0.00 in0.0 mm
09:00 PM -9.4°F-23.0°C -9.6°F-23.1°C 99% Calm Calm -- 29.14 in986.8 mb - 0.00 in0.0 mm 0.00 in0.0 mm
10:00 PM -10.8°F-23.8°C -16.3°F-26.8°C 76% Calm Calm -- 29.14 in986.8 mb - 0.00 in0.0 mm 0.00 in0.0 mm
11:00 PM -13.0°F-25.0°C -13.2°F-25.1°C 99% Calm Calm -- 29.14 in986.8 mb - 0.00 in0.0 mm 0.00 in0.0 mm